sensor_id;sensor_type;location;lat;lon;timestamp;pressure;altitude;pressure_sealevel;temperature;humidity
29505;BME280;16452;54.174;12.092;2022-12-10T00:00:18;100909.94;;;1.44;100.00
29505;BME280;16452;54.174;12.092;2022-12-10T00:02:44;100912.22;;;1.65;100.00
29505;BME280;16452;54.174;12.092;2022-12-10T00:05:10;100913.88;;;1.71;100.00
29505;BME280;16452;54.174;12.092;2022-12-10T00:07:36;100908.09;;;1.56;100.00
29505;BME280;16452;54.174;12.092;2022-12-10T00:10:01;100917.19;;;1.80;99.80
29505;BME280;16452;54.174;12.092;2022-12-10T00:12:27;100920.22;;;1.44;100.00
29505;BME280;16452;54.174;12.092;2022-12-10T00:14:53;100920.38;;;1.32;100.00
29505;BME280;16452;54.174;12.092;2022-12-10T00:17:19;100930.22;;;1.63;100.00
29505;BME280;16452;54.174;12.092;2022-12-10T00:19:44;100924.38;;;1.52;100.00
29505;BME280;16452;54.174;12.092;2022-12-10T00:22:10;100921.59;;;1.69;100.00
29505;BME280;16452;54.174;12.092;2022-12-10T00:24:36;100924.28;;;1.58;100.00
29505;BME280;16452;54.174;12.092;2022-12-10T00:27:01;100919.91;;;1.68;100.00
29505;BME280;16452;54.174;12.092;2022-12-10T00:29:27;100923.56;;;1.50;100.00
29505;BME280;16452;54.174;12.092;2022-12-10T00:31:53;100924.06;;;1.75;100.00
29505;BME280;16452;54.174;12.092;2022-12-10T00:34:19;100926.75;;;1.68;100.00
29505;BME280;16452;54.174;12.092;2022-12-10T00:36:47;100925.81;;;1.75;100.00
29505;BME280;16452;54.174;12.092;2022-12-10T00:39:17;100918.59;;;1.99;100.00
29505;BME280;16452;54.174;12.092;2022-12-10T00:41:43;100916.88;;;2.00;99.78
29505;BME280;16452;54.174;12.092;2022-12-10T00:44:09;100926.75;;;1.68;100.00
29505;BME280;16452;54.174;12.092;2022-12-10T00:46:35;100920.75;;;1.69;100.00
29505;BME280;16452;54.174;12.092;2022-12-10T00:49:01;100919.53;;;1.94;100.00
29505;BME280;16452;54.174;12.092;2022-12-10T00:51:27;100932.69;;;1.73;100.00
29505;BME280;16452;54.174;12.092;2022-12-10T00:53:56;100934.72;;;1.46;100.00
29505;BME280;16452;54.174;12.092;2022-12-10T00:56:29;100926.34;;;1.32;100.00
29505;BME280;16452;54.174;12.092;2022-12-10T00:58:55;100922.72;;;1.48;100.00
29505;BME280;16452;54.174;12.092;2022-12-10T01:01:30;100923.97;;;1.84;100.00
29505;BME280;16452;54.174;12.092;2022-12-10T01:04:06;100922.59;;;1.59;100.00
29505;BME280;16452;54.174;12.092;2022-12-10T01:06:45;100919.59;;;1.91;100.00
29505;BME280;16452;54.174;12.092;2022-12-10T01:09:16;100920.41;;;1.93;99.29
29505;BME280;16452;54.174;12.092;2022-12-10T01:11:44;100923.94;;;1.86;100.00
29505;BME280;16452;54.174;12.092;2022-12-10T01:14:16;100919.50;;;1.95;99.51
29505;BME280;16452;54.174;12.092;2022-12-10T01:16:44;100922.03;;;1.98;99.88
29505;BME280;16452;54.174;12.092;2022-12-10T01:19:10;100925.69;;;1.82;99.04
29505;BME280;16452;54.174;12.092;2022-12-10T01:21:36;100922.16;;;1.91;99.34
29505;BME280;16452;54.174;12.092;2022-12-10T01:24:03;100929.88;;;1.88;99.75
29505;BME280;16452;54.174;12.092;2022-12-10T01:26:32;100934.22;;;1.84;99.36
29505;BME280;16452;54.174;12.092;2022-12-10T01:28:59;100929.34;;;1.66;100.00
29505;BME280;16452;54.174;12.092;2022-12-10T01:31:31;100925.34;;;1.45;100.00
29505;BME280;16452;54.174;12.092;2022-12-10T01:33:58;100927.22;;;1.30;100.00
29505;BME280;16452;54.174;12.092;2022-12-10T01:36:31;100928.34;;;1.76;100.00
29505;BME280;16452;54.174;12.092;2022-12-10T01:38:58;100933.31;;;1.88;99.79
29505;BME280;16452;54.174;12.092;2022-12-10T01:41:32;100929.72;;;1.37;100.00
29505;BME280;16452;54.174;12.092;2022-12-10T01:47:17;100944.81;;;1.61;100.00
29505;BME280;16452;54.174;12.092;2022-12-10T01:49:34;100940.31;;;1.08;100.00
29505;BME280;16452;54.174;12.092;2022-12-10T01:52:00;100946.75;;;1.41;100.00
29505;BME280;16452;54.174;12.092;2022-12-10T01:54:33;100935.63;;;1.44;100.00
29505;BME280;16452;54.174;12.092;2022-12-10T01:57:21;100946.53;;;1.61;100.00
29505;BME280;16452;54.174;12.092;2022-12-10T01:59:52;100944.63;;;1.05;100.00
29505;BME280;16452;54.174;12.092;2022-12-10T02:02:50;100942.41;;;1.46;100.00
29505;BME280;16452;54.174;12.092;2022-12-10T02:05:28;100944.97;;;1.48;100.00
29505;BME280;16452;54.174;12.092;2022-12-10T02:08:25;100947.38;;;1.60;100.00
29505;BME280;16452;54.174;12.092;2022-12-10T02:11:17;100950.50;;;1.85;100.00
29505;BME280;16452;54.174;12.092;2022-12-10T02:14:18;100945.97;;;1.38;100.00
29505;BME280;16452;54.174;12.092;2022-12-10T02:17:05;100951.06;;;1.39;100.00
29505;BME280;16452;54.174;12.092;2022-12-10T02:19:51;100952.78;;;1.39;100.00
29505;BME280;16452;54.174;12.092;2022-12-10T02:22:19;100951.16;;;1.32;100.00
29505;BME280;16452;54.174;12.092;2022-12-10T02:24:47;100950.34;;;1.28;100.00
29505;BME280;16452;54.174;12.092;2022-12-10T02:30:07;100946.16;;;1.21;100.00
29505;BME280;16452;54.174;12.092;2022-12-10T02:32:38;100950.22;;;1.39;100.00
29505;BME280;16452;54.174;12.092;2022-12-10T02:35:15;100946.16;;;1.19;100.00
29505;BME280;16452;54.174;12.092;2022-12-10T02:37:53;100938.47;;;1.18;100.00
29505;BME280;16452;54.174;12.092;2022-12-10T02:40:27;100947.03;;;1.17;100.00
29505;BME280;16452;54.174;12.092;2022-12-10T02:42:55;100940.31;;;1.05;100.00
29505;BME280;16452;54.174;12.092;2022-12-10T02:45:24;100947.50;;;0.73;100.00
29505;BME280;16452;54.174;12.092;2022-12-10T02:47:57;100952.88;;;0.44;100.00
29505;BME280;16452;54.174;12.092;2022-12-10T02:50:24;100955.22;;;0.65;100.00
29505;BME280;16452;54.174;12.092;2022-12-10T02:52:50;100955.97;;;0.78;100.00
29505;BME280;16452;54.174;12.092;2022-12-10T02:55:17;100956.88;;;0.75;100.00
29505;BME280;16452;54.174;12.092;2022-12-10T03:00:13;100955.97;;;0.81;100.00
29505;BME280;16452;54.174;12.092;2022-12-10T03:05:40;100957.63;;;0.83;100.00
29505;BME280;16452;54.174;12.092;2022-12-10T03:08:12;100954.84;;;1.06;100.00
29505;BME280;16452;54.174;12.092;2022-12-10T03:10:55;100960.88;;;1.02;100.00
29505;BME280;16452;54.174;12.092;2022-12-10T03:13:29;100957.84;;;1.45;100.00
29505;BME280;16452;54.174;12.092;2022-12-10T03:15:59;100954.44;;;1.41;100.00
29505;BME280;16452;54.174;12.092;2022-12-10T03:18:27;100967.03;;;0.83;100.00
29505;BME280;16452;54.174;12.092;2022-12-10T03:20:59;100954.69;;;1.21;100.00
29505;BME280;16452;54.174;12.092;2022-12-10T03:23:27;100960.50;;;1.34;100.00
29505;BME280;16452;54.174;12.092;2022-12-10T03:25:54;100965.69;;;1.33;100.00
29505;BME280;16452;54.174;12.092;2022-12-10T03:28:21;100957.22;;;1.23;100.00
29505;BME280;16452;54.174;12.092;2022-12-10T03:30:48;100959.78;;;1.26;100.00
29505;BME280;16452;54.174;12.092;2022-12-10T03:33:16;100954.03;;;1.04;100.00
29505;BME280;16452;54.174;12.092;2022-12-10T03:35:42;100969.53;;;0.92;100.00
29505;BME280;16452;54.174;12.092;2022-12-10T03:38:09;100955.63;;;1.13;100.00
29505;BME280;16452;54.174;12.092;2022-12-10T03:40:35;100974.78;;;0.80;100.00
29505;BME280;16452;54.174;12.092;2022-12-10T03:43:01;100978.91;;;0.95;100.00
29505;BME280;16452;54.174;12.092;2022-12-10T03:45:26;100964.31;;;1.00;100.00
29505;BME280;16452;54.174;12.092;2022-12-10T03:47:52;100963.25;;;1.20;100.00
29505;BME280;16452;54.174;12.092;2022-12-10T03:50:18;100962.59;;;1.02;100.00
29505;BME280;16452;54.174;12.092;2022-12-10T03:52:44;100985.66;;;1.03;100.00
29505;BME280;16452;54.174;12.092;2022-12-10T03:55:10;100979.81;;;0.89;100.00
29505;BME280;16452;54.174;12.092;2022-12-10T03:57:36;100975.78;;;0.64;100.00
29505;BME280;16452;54.174;12.092;2022-12-10T04:00:04;100977.47;;;0.63;100.00
29505;BME280;16452;54.174;12.092;2022-12-10T04:02:30;100974.78;;;0.81;100.00
29505;BME280;16452;54.174;12.092;2022-12-10T04:04:56;100979.06;;;0.78;100.00
29505;BME280;16452;54.174;12.092;2022-12-10T04:07:22;100979.84;;;0.86;100.00
29505;BME280;16452;54.174;12.092;2022-12-10T04:09:52;100977.06;;;1.07;100.00
29505;BME280;16452;54.174;12.092;2022-12-10T04:12:18;100974.44;;;1.13;100.00
29505;BME280;16452;54.174;12.092;2022-12-10T04:14:44;100974.63;;;0.94;100.00
29505;BME280;16452;54.174;12.092;2022-12-10T04:17:31;100972.06;;;0.94;100.00
29505;BME280;16452;54.174;12.092;2022-12-10T04:19:57;100981.63;;;0.79;100.00
29505;BME280;16452;54.174;12.092;2022-12-10T04:22:23;100979.09;;;0.72;100.00
29505;BME280;16452;54.174;12.092;2022-12-10T04:25:11;100973.97;;;0.73;100.00
29505;BME280;16452;54.174;12.092;2022-12-10T04:27:56;100972.91;;;0.96;100.00
29505;BME280;16452;54.174;12.092;2022-12-10T04:30:22;100964.31;;;1.01;100.00
29505;BME280;16452;54.174;12.092;2022-12-10T04:32:47;100965.25;;;0.91;100.00
29505;BME280;16452;54.174;12.092;2022-12-10T04:35:13;100965.22;;;0.96;100.00
29505;BME280;16452;54.174;12.092;2022-12-10T04:37:39;100971.38;;;0.76;100.00
29505;BME280;16452;54.174;12.092;2022-12-10T04:40:06;100962.72;;;0.90;100.00
29505;BME280;16452;54.174;12.092;2022-12-10T04:42:32;100956.59;;;1.01;100.00
29505;BME280;16452;54.174;12.092;2022-12-10T04:44:58;100963.69;;;0.78;100.00
29505;BME280;16452;54.174;12.092;2022-12-10T04:47:24;100975.63;;;0.79;100.00
29505;BME280;16452;54.174;12.092;2022-12-10T04:49:50;100971.19;;;0.95;100.00
29505;BME280;16452;54.174;12.092;2022-12-10T04:52:16;100973.78;;;0.95;100.00
29505;BME280;16452;54.174;12.092;2022-12-10T04:54:43;100971.31;;;0.86;100.00
29505;BME280;16452;54.174;12.092;2022-12-10T04:57:10;100966.81;;;1.06;100.00
29505;BME280;16452;54.174;12.092;2022-12-10T04:59:36;100974.59;;;0.98;100.00
29505;BME280;16452;54.174;12.092;2022-12-10T05:02:04;100983.50;;;0.58;100.00
29505;BME280;16452;54.174;12.092;2022-12-10T05:04:30;100975.69;;;0.74;100.00
29505;BME280;16452;54.174;12.092;2022-12-10T05:06:56;100976.47;;;0.79;100.00
29505;BME280;16452;54.174;12.092;2022-12-10T05:09:21;100977.44;;;0.66;100.00
29505;BME280;16452;54.174;12.092;2022-12-10T05:11:48;100978.16;;;0.85;100.00
29505;BME280;16452;54.174;12.092;2022-12-10T05:14:15;100977.34;;;0.80;100.00
29505;BME280;16452;54.174;12.092;2022-12-10T05:16:41;100979.91;;;0.78;100.00
29505;BME280;16452;54.174;12.092;2022-12-10T05:19:09;100981.72;;;0.69;100.00
29505;BME280;16452;54.174;12.092;2022-12-10T05:21:35;100991.13;;;0.65;100.00
29505;BME280;16452;54.174;12.092;2022-12-10T05:24:19;100988.59;;;0.62;100.00
29505;BME280;16452;54.174;12.092;2022-12-10T05:26:44;100988.59;;;0.61;100.00
29505;BME280;16452;54.174;12.092;2022-12-10T05:29:12;100996.19;;;0.74;100.00
29505;BME280;16452;54.174;12.092;2022-12-10T05:31:38;100997.94;;;0.68;100.00
29505;BME280;16452;54.174;12.092;2022-12-10T05:34:04;100995.38;;;0.66;100.00
29505;BME280;16452;54.174;12.092;2022-12-10T05:36:31;101003.84;;;0.79;100.00
29505;BME280;16452;54.174;12.092;2022-12-10T05:38:58;101003.06;;;0.68;100.00
29505;BME280;16452;54.174;12.092;2022-12-10T05:41:34;101002.97;;;0.81;100.00
29505;BME280;16452;54.174;12.092;2022-12-10T05:44:00;101010.00;;;0.55;100.00
29505;BME280;16452;54.174;12.092;2022-12-10T05:46:29;101005.63;;;0.68;100.00
29505;BME280;16452;54.174;12.092;2022-12-10T05:48:56;100999.78;;;0.52;100.00
29505;BME280;16452;54.174;12.092;2022-12-10T05:51:25;101004.88;;;0.58;100.00
29505;BME280;16452;54.174;12.092;2022-12-10T05:53:53;101007.47;;;0.52;100.00
29505;BME280;16452;54.174;12.092;2022-12-10T05:56:21;101005.63;;;0.69;100.00
29505;BME280;16452;54.174;12.092;2022-12-10T05:58:50;101006.66;;;0.43;100.00
29505;BME280;16452;54.174;12.092;2022-12-10T06:01:23;101009.84;;;0.75;100.00
29505;BME280;16452;54.174;12.092;2022-12-10T06:03:50;101009.75;;;0.87;100.00
29505;BME280;16452;54.174;12.092;2022-12-10T06:06:33;101008.06;;;0.83;100.00
29505;BME280;16452;54.174;12.092;2022-12-10T06:09:00;101002.16;;;0.73;100.00
29505;BME280;16452;54.174;12.092;2022-12-10T06:11:27;101004.22;;;0.27;100.00
29505;BME280;16452;54.174;12.092;2022-12-10T06:13:54;101005.88;;;0.33;100.00
29505;BME280;16452;54.174;12.092;2022-12-10T06:16:20;101002.41;;;0.43;100.00
29505;BME280;16452;54.174;12.092;2022-12-10T06:18:46;101003.44;;;0.13;100.00
29505;BME280;16452;54.174;12.092;2022-12-10T06:21:15;101013.66;;;0.21;100.00
29505;BME280;16452;54.174;12.092;2022-12-10T06:23:42;101006.78;;;0.24;100.00
29505;BME280;16452;54.174;12.092;2022-12-10T06:26:14;101008.41;;;0.40;100.00
29505;BME280;16452;54.174;12.092;2022-12-10T06:28:41;101016.88;;;0.49;100.00
29505;BME280;16452;54.174;12.092;2022-12-10T06:31:07;101010.72;;;0.74;100.00
29505;BME280;16452;54.174;12.092;2022-12-10T06:33:33;101010.81;;;0.63;100.00
29505;BME280;16452;54.174;12.092;2022-12-10T06:36:02;101017.50;;;0.76;100.00
29505;BME280;16452;54.174;12.092;2022-12-10T06:38:28;101013.13;;;0.89;99.76
29505;BME280;16452;54.174;12.092;2022-12-10T06:40:53;101007.22;;;0.82;100.00
29505;BME280;16452;54.174;12.092;2022-12-10T06:43:19;101013.97;;;0.93;99.87
29505;BME280;16452;54.174;12.092;2022-12-10T06:45:45;101001.31;;;0.71;99.81
29505;BME280;16452;54.174;12.092;2022-12-10T06:48:10;101008.16;;;0.75;99.90
29505;BME280;16452;54.174;12.092;2022-12-10T06:50:36;101008.81;;;0.96;97.95
29505;BME280;16452;54.174;12.092;2022-12-10T06:53:02;101012.44;;;0.73;100.00
29505;BME280;16452;54.174;12.092;2022-12-10T06:55:28;101017.50;;;0.79;99.46
29505;BME280;16452;54.174;12.092;2022-12-10T06:57:54;101020.78;;;0.95;98.43
29505;BME280;16452;54.174;12.092;2022-12-10T07:00:20;101023.34;;;0.97;96.08
29505;BME280;16452;54.174;12.092;2022-12-10T07:02:50;101030.81;;;1.21;96.54
29505;BME280;16452;54.174;12.092;2022-12-10T07:05:16;101027.44;;;1.14;95.51
29505;BME280;16452;54.174;12.092;2022-12-10T07:07:42;101023.38;;;0.92;95.21
29505;BME280;16452;54.174;12.092;2022-12-10T07:10:08;101028.56;;;0.83;96.39
29505;BME280;16452;54.174;12.092;2022-12-10T07:12:34;101029.13;;;1.17;95.15
29505;BME280;16452;54.174;12.092;2022-12-10T07:15:00;101033.44;;;1.16;94.52
29505;BME280;16452;54.174;12.092;2022-12-10T07:17:26;101030.09;;;1.05;94.62
29505;BME280;16452;54.174;12.092;2022-12-10T07:19:51;101032.84;;;0.87;94.75
29505;BME280;16452;54.174;12.092;2022-12-10T07:22:17;101037.72;;;1.11;94.52
29505;BME280;16452;54.174;12.092;2022-12-10T07:24:43;101038.69;;;1.00;94.56
29505;BME280;16452;54.174;12.092;2022-12-10T07:27:09;101039.69;;;0.82;95.34
29505;BME280;16452;54.174;12.092;2022-12-10T07:29:35;101038.03;;;0.78;96.01
29505;BME280;16452;54.174;12.092;2022-12-10T07:32:01;101041.44;;;0.81;96.92
29505;BME280;16452;54.174;12.092;2022-12-10T07:34:27;101042.19;;;0.90;96.66
29505;BME280;16452;54.174;12.092;2022-12-10T07:36:52;101042.19;;;0.88;95.19
29505;BME280;16452;54.174;12.092;2022-12-10T07:39:18;101044.56;;;1.14;94.54
29505;BME280;16452;54.174;12.092;2022-12-10T07:41:51;101048.81;;;1.15;94.89
29505;BME280;16452;54.174;12.092;2022-12-10T07:44:22;101049.84;;;0.96;94.30
29505;BME280;16452;54.174;12.092;2022-12-10T07:46:50;101051.44;;;1.09;95.06
29505;BME280;16452;54.174;12.092;2022-12-10T07:49:16;101056.53;;;1.12;94.64
29505;BME280;16452;54.174;12.092;2022-12-10T07:51:47;101056.41;;;1.24;94.21
29505;BME280;16452;54.174;12.092;2022-12-10T07:54:14;101058.13;;;1.25;93.57
29505;BME280;16452;54.174;12.092;2022-12-10T07:56:40;101062.44;;;1.21;94.02
29505;BME280;16452;54.174;12.092;2022-12-10T07:59:06;101064.97;;;1.28;92.71
29505;BME280;16452;54.174;12.092;2022-12-10T08:01:32;101064.06;;;1.33;93.21
29505;BME280;16452;54.174;12.092;2022-12-10T08:03:58;101066.72;;;1.21;94.58
29505;BME280;16452;54.174;12.092;2022-12-10T08:06:26;101065.16;;;1.05;93.98
29505;BME280;16452;54.174;12.092;2022-12-10T08:08:53;101063.38;;;1.13;93.89
29505;BME280;16452;54.174;12.092;2022-12-10T08:11:20;101059.13;;;1.09;95.11
29505;BME280;16452;54.174;12.092;2022-12-10T08:13:47;101055.06;;;0.85;95.70
29505;BME280;16452;54.174;12.092;2022-12-10T08:16:22;101066.72;;;1.21;95.22
29505;BME280;16452;54.174;12.092;2022-12-10T08:18:51;101058.97;;;1.27;93.97
29505;BME280;16452;54.174;12.092;2022-12-10T08:21:21;101060.75;;;1.17;94.14
29505;BME280;16452;54.174;12.092;2022-12-10T08:23:47;101066.75;;;1.18;95.53
29505;BME280;16452;54.174;12.092;2022-12-10T08:26:20;101068.38;;;1.25;95.39
29505;BME280;16452;54.174;12.092;2022-12-10T08:28:47;101061.66;;;1.15;97.03
29505;BME280;16452;54.174;12.092;2022-12-10T08:31:15;101061.00;;;0.92;96.58
29505;BME280;16452;54.174;12.092;2022-12-10T08:33:41;101061.81;;;0.97;95.69
29505;BME280;16452;54.174;12.092;2022-12-10T08:36:10;101061.75;;;1.04;97.01
29505;BME280;16452;54.174;12.092;2022-12-10T08:38:37;101061.72;;;1.06;96.55
29505;BME280;16452;54.174;12.092;2022-12-10T08:41:11;101065.22;;;0.94;95.76
29505;BME280;16452;54.174;12.092;2022-12-10T08:43:37;101072.91;;;0.99;96.28
29505;BME280;16452;54.174;12.092;2022-12-10T08:46:04;101067.16;;;0.69;96.29
29505;BME280;16452;54.174;12.092;2022-12-10T08:48:30;101070.50;;;0.79;97.01
29505;BME280;16452;54.174;12.092;2022-12-10T08:50:57;101070.28;;;1.05;95.03
29505;BME280;16452;54.174;12.092;2022-12-10T08:53:23;101075.28;;;1.21;94.41
29505;BME280;16452;54.174;12.092;2022-12-10T08:55:53;101072.63;;;1.31;93.32
29505;BME280;16452;54.174;12.092;2022-12-10T08:58:19;101081.06;;;1.43;93.05
29505;BME280;16452;54.174;12.092;2022-12-10T09:00:47;101064.56;;;1.65;92.84
29505;BME280;16452;54.174;12.092;2022-12-10T09:03:13;101074.81;;;1.69;91.89
29505;BME280;16452;54.174;12.092;2022-12-10T09:05:41;101079.38;;;1.39;91.18
29505;BME280;16452;54.174;12.092;2022-12-10T09:08:08;101079.38;;;1.39;91.72
29505;BME280;16452;54.174;12.092;2022-12-10T09:10:37;101079.56;;;1.18;92.87
29505;BME280;16452;54.174;12.092;2022-12-10T09:13:03;101079.59;;;1.15;93.63
29505;BME280;16452;54.174;12.092;2022-12-10T09:15:29;101081.31;;;1.13;93.29
29505;BME280;16452;54.174;12.092;2022-12-10T09:17:55;101070.03;;;1.31;94.02
29505;BME280;16452;54.174;12.092;2022-12-10T09:20:22;101071.00;;;1.20;94.52
29505;BME280;16452;54.174;12.092;2022-12-10T09:22:48;101070.16;;;1.18;94.57
29505;BME280;16452;54.174;12.092;2022-12-10T09:25:14;101072.81;;;1.06;96.01
29505;BME280;16452;54.174;12.092;2022-12-10T09:27:43;101070.31;;;1.02;96.12
29505;BME280;16452;54.174;12.092;2022-12-10T09:30:10;101065.81;;;1.23;96.19
29505;BME280;16452;54.174;12.092;2022-12-10T09:32:37;101069.41;;;1.07;96.49
29505;BME280;16452;54.174;12.092;2022-12-10T09:35:03;101068.50;;;1.13;94.79
29505;BME280;16452;54.174;12.092;2022-12-10T09:37:29;101067.78;;;0.94;96.25
29505;BME280;16452;54.174;12.092;2022-12-10T09:39:55;101066.03;;;1.02;96.04
29505;BME280;16452;54.174;12.092;2022-12-10T09:45:36;101072.25;;;0.72;98.12
29505;BME280;16452;54.174;12.092;2022-12-10T09:48:20;101068.00;;;0.70;98.62
29505;BME280;16452;54.174;12.092;2022-12-10T09:51:05;101081.56;;;0.84;97.74
29505;BME280;16452;54.174;12.092;2022-12-10T09:53:36;101079.88;;;0.77;98.62
29505;BME280;16452;54.174;12.092;2022-12-10T09:56:04;101087.34;;;1.07;98.52
29505;BME280;16452;54.174;12.092;2022-12-10T09:58:36;101088.75;;;1.42;97.27
29505;BME280;16452;54.174;12.092;2022-12-10T10:01:05;101091.38;;;1.37;95.98
29505;BME280;16452;54.174;12.092;2022-12-10T10:03:38;101090.53;;;1.35;96.18
29505;BME280;16452;54.174;12.092;2022-12-10T10:06:06;101088.81;;;1.34;95.63
29505;BME280;16452;54.174;12.092;2022-12-10T10:11:04;101090.75;;;1.95;93.01
29505;BME280;16452;54.174;12.092;2022-12-10T10:13:49;101086.53;;;1.91;92.32
29505;BME280;16452;54.174;12.092;2022-12-10T10:16:32;101093.19;;;2.04;89.59
29505;BME280;16452;54.174;12.092;2022-12-10T10:19:04;101094.78;;;1.38;89.88
29505;BME280;16452;54.174;12.092;2022-12-10T10:21:37;101094.63;;;1.53;90.19
29505;BME280;16452;54.174;12.092;2022-12-10T10:24:05;101090.88;;;1.84;89.43
29505;BME280;16452;54.174;12.092;2022-12-10T10:26:33;101103.84;;;1.72;88.97
29505;BME280;16452;54.174;12.092;2022-12-10T10:29:08;101094.31;;;1.85;88.48
29505;BME280;16452;54.174;12.092;2022-12-10T10:31:41;101095.38;;;1.64;88.71
29505;BME280;16452;54.174;12.092;2022-12-10T10:34:20;101100.66;;;1.50;89.19
29505;BME280;16452;54.174;12.092;2022-12-10T10:36:47;101101.34;;;1.66;88.71
29505;BME280;16452;54.174;12.092;2022-12-10T10:39:29;101102.47;;;1.39;88.86
29505;BME280;16452;54.174;12.092;2022-12-10T10:41:57;101104.78;;;1.63;89.56
29505;BME280;16452;54.174;12.092;2022-12-10T10:44:28;101096.44;;;1.45;89.54
29505;BME280;16452;54.174;12.092;2022-12-10T10:46:58;101107.56;;;1.44;91.07
29505;BME280;16452;54.174;12.092;2022-12-10T10:52:12;101101.47;;;2.29;90.65
29505;BME280;16452;54.174;12.092;2022-12-10T10:54:44;101107.84;;;2.63;87.39
29505;BME280;16452;54.174;12.092;2022-12-10T10:57:32;101104.47;;;2.60;85.91
29505;BME280;16452;54.174;12.092;2022-12-10T11:00:21;101107.53;;;1.48;87.87
29505;BME280;16452;54.174;12.092;2022-12-10T11:02:53;101102.16;;;1.71;88.36
29505;BME280;16452;54.174;12.092;2022-12-10T11:05:29;101094.44;;;1.74;88.81
29505;BME280;16452;54.174;12.092;2022-12-10T11:08:16;101086.34;;;2.04;86.93
29505;BME280;16452;54.174;12.092;2022-12-10T11:11:03;101095.38;;;1.65;87.50
29505;BME280;16452;54.174;12.092;2022-12-10T11:13:33;101084.22;;;1.68;87.42
29505;BME280;16452;54.174;12.092;2022-12-10T11:18:58;101086.97;;;1.48;88.53
29505;BME280;16452;54.174;12.092;2022-12-10T11:21:33;101088.63;;;1.57;89.79
29505;BME280;16452;54.174;12.092;2022-12-10T11:24:09;101097.94;;;1.65;89.20
29505;BME280;16452;54.174;12.092;2022-12-10T11:27:07;101083.31;;;1.71;88.91
29505;BME280;16452;54.174;12.092;2022-12-10T11:29:59;101079.84;;;1.76;87.76
29505;BME280;16452;54.174;12.092;2022-12-10T11:35:18;101074.63;;;1.81;87.31
29505;BME280;16452;54.174;12.092;2022-12-10T11:38:20;101079.28;;;1.47;89.13
29505;BME280;16452;54.174;12.092;2022-12-10T11:47:08;101076.34;;;1.82;87.21
29505;BME280;16452;54.174;12.092;2022-12-10T11:50:01;101083.25;;;1.78;85.99
29505;BME280;16452;54.174;12.092;2022-12-10T12:01:19;101085.16;;;1.58;88.81
29505;BME280;16452;54.174;12.092;2022-12-10T12:18:23;101087.84;;;1.46;89.87
29505;BME280;16452;54.174;12.092;2022-12-10T12:21:00;101086.25;;;1.37;90.60
29505;BME280;16452;54.174;12.092;2022-12-10T12:23:44;101089.72;;;1.33;92.73
29505;BME280;16452;54.174;12.092;2022-12-10T12:26:29;101089.72;;;1.30;92.14
29505;BME280;16452;54.174;12.092;2022-12-10T12:29:33;101100.63;;;1.52;92.35
29505;BME280;16452;54.174;12.092;2022-12-10T12:32:11;101091.41;;;1.33;92.23
29505;BME280;16452;54.174;12.092;2022-12-10T12:34:59;101087.16;;;1.33;92.39
29505;BME280;16452;54.174;12.092;2022-12-10T12:37:54;101093.28;;;1.14;92.83
29505;BME280;16452;54.174;12.092;2022-12-10T12:40:40;101091.41;;;1.33;93.39
29505;BME280;16452;54.174;12.092;2022-12-10T12:46:09;101087.09;;;1.36;92.67
29505;BME280;16452;54.174;12.092;2022-12-10T12:48:45;101097.31;;;1.42;89.54
29505;BME280;16452;54.174;12.092;2022-12-10T12:51:48;101086.44;;;1.16;88.99
29505;BME280;16452;54.174;12.092;2022-12-10T12:54:10;101097.34;;;1.38;90.52
29505;BME280;16452;54.174;12.092;2022-12-10T12:59:41;101093.19;;;1.26;91.30
29505;BME280;16452;54.174;12.092;2022-12-10T13:02:59;101098.56;;;0.97;92.48
29505;BME280;16452;54.174;12.092;2022-12-10T13:05:32;101100.81;;;1.34;91.56
29505;BME280;16452;54.174;12.092;2022-12-10T13:19:30;101114.63;;;1.19;90.58
29505;BME280;16452;54.174;12.092;2022-12-10T13:30:03;101116.38;;;1.15;88.08
29505;BME280;16452;54.174;12.092;2022-12-10T13:32:46;101116.56;;;0.93;89.05
29505;BME280;16452;54.174;12.092;2022-12-10T13:40:41;101115.34;;;1.35;85.49
29505;BME280;16452;54.174;12.092;2022-12-10T13:47:21;101123.19;;;1.18;84.44
29505;BME280;16452;54.174;12.092;2022-12-10T13:49:56;101116.44;;;1.06;83.54
29505;BME280;16452;54.174;12.092;2022-12-10T13:56:13;101116.63;;;0.79;85.06
29505;BME280;16452;54.174;12.092;2022-12-10T13:59:00;101122.75;;;0.58;85.14
29505;BME280;16452;54.174;12.092;2022-12-10T14:07:14;101121.88;;;0.62;83.80
29505;BME280;16452;54.174;12.092;2022-12-10T14:09:51;101120.91;;;0.80;83.22
29505;BME280;16452;54.174;12.092;2022-12-10T14:12:32;101127.69;;;0.87;83.09
29505;BME280;16452;54.174;12.092;2022-12-10T14:15:25;101126.06;;;0.75;83.62
29505;BME280;16452;54.174;12.092;2022-12-10T14:18:03;101125.28;;;0.61;83.27
29505;BME280;16452;54.174;12.092;2022-12-10T14:20:31;101123.72;;;0.37;83.42
29505;BME280;16452;54.174;12.092;2022-12-10T14:23:05;101127.81;;;0.64;83.67
29505;BME280;16452;54.174;12.092;2022-12-10T14:26:30;101128.84;;;0.31;85.07
29505;BME280;16452;54.174;12.092;2022-12-10T14:29:18;101128.97;;;0.04;85.55
29505;BME280;16452;54.174;12.092;2022-12-10T14:31:48;101133.22;;;0.07;85.22
29505;BME280;16452;54.174;12.092;2022-12-10T14:34:25;101138.19;;;0.45;84.77
29505;BME280;16452;54.174;12.092;2022-12-10T14:36:57;101128.13;;;0.05;85.02
29505;BME280;16452;54.174;12.092;2022-12-10T14:39:30;101139.22;;;-0.02;85.83
29505;BME280;16452;54.174;12.092;2022-12-10T14:42:03;101141.66;;;0.34;84.90
29505;BME280;16452;54.174;12.092;2022-12-10T14:44:30;101139.97;;;0.27;85.17